Time;durP1;ratioP1;P1;durP2;ratioP2;P2;SDS_P1;SDS_P2;PMS_P1;PMS_P2;Temp;Humidity;BMP_temperature;BMP_pressure;BME280_temperature;BME280_humidity;BME280_pressure;Samples;Min_cycle;Max_cycle;Signal;HPM_P1;HPM_P2
2022/12/04 00:00:38;;;;;;;;;;;16.70;41.50;;;;;;8329777;28;19920;-43
2022/12/04 00:04:39;;;;;;;;;;;16.70;41.60;;;;;;8330071;28;19948;-44
2022/12/04 00:08:39;;;;;;;;;;;16.70;41.60;;;;;;8330259;28;20441;-44
2022/12/04 00:12:40;;;;;;;;;;;16.70;41.50;;;;;;8329609;28;20401;-44
2022/12/04 00:16:40;;;;;;;;;;;16.70;41.50;;;;;;8329754;28;19917;-44
2022/12/04 00:20:41;;;;;;;;;;;16.70;41.50;;;;;;8330119;28;19917;-43
2022/12/04 00:24:41;;;;;;;;;;;16.70;41.50;;;;;;8329238;28;20381;-44
2022/12/04 00:28:42;;;;;;;;;;;16.70;41.40;;;;;;8329809;28;20435;-43
2022/12/04 00:32:42;;;;;;;;;;;16.70;41.50;;;;;;8329620;28;19963;-43
2022/12/04 00:36:43;;;;;;;;;;;16.70;41.60;;;;;;8327822;28;19924;-43
2022/12/04 00:40:49;;;;;;;;;;;16.70;41.60;;;;;;8329567;28;20012;-43
2022/12/04 00:44:50;;;;;;;;;;;16.70;41.50;;;;;;8333285;28;19939;-43
2022/12/04 00:48:51;;;;;;;;;;;16.70;41.60;;;;;;8335549;28;19921;-43
2022/12/04 00:52:51;;;;;;;;;;;16.70;41.40;;;;;;8335526;28;19924;-44
2022/12/04 00:56:52;;;;;;;;;;;16.70;41.60;;;;;;8335392;28;19921;-43
2022/12/04 01:00:59;;;;;;;;;;;16.70;41.60;;;;;;8334910;28;19917;-44
2022/12/04 01:05:00;;;;;;;;;;;16.70;41.60;;;;;;8335309;28;19913;-44
2022/12/04 01:09:02;;;;;;;;;;;16.70;41.50;;;;;;8335277;28;20015;-43
2022/12/04 01:13:03;;;;;;;;;;;16.70;41.50;;;;;;8334544;28;19960;-43
2022/12/04 01:17:03;;;;;;;;;;;16.70;41.50;;;;;;8334702;28;19924;-43
2022/12/04 01:21:04;;;;;;;;;;;16.70;41.50;;;;;;8334648;28;19940;-44
2022/12/04 01:25:04;;;;;;;;;;;16.70;41.50;;;;;;8334106;28;20378;-42
2022/12/04 01:29:05;;;;;;;;;;;16.70;41.50;;;;;;8334886;28;19925;-43
2022/12/04 01:33:05;;;;;;;;;;;16.70;41.50;;;;;;8334411;28;19964;-44
2022/12/04 01:37:06;;;;;;;;;;;16.70;41.50;;;;;;8333891;28;19918;-44
2022/12/04 01:41:07;;;;;;;;;;;16.70;41.50;;;;;;8334187;28;20406;-44
2022/12/04 01:45:26;;;;;;;;;;;16.70;41.50;;;;;;8334194;28;19914;-44
2022/12/04 01:49:35;;;;;;;;;;;16.70;41.50;;;;;;8333966;28;19932;-44
2022/12/04 01:53:37;;;;;;;;;;;16.70;41.50;;;;;;8333977;28;19944;-43
2022/12/04 01:57:37;;;;;;;;;;;16.70;41.50;;;;;;8333325;28;19921;-43
2022/12/04 02:01:41;;;;;;;;;;;16.70;41.50;;;;;;8333467;28;19999;-43
2022/12/04 02:05:41;;;;;;;;;;;16.70;41.50;;;;;;8332571;28;20434;-43
2022/12/04 02:09:42;;;;;;;;;;;16.70;41.50;;;;;;8332784;28;19925;-44
2022/12/04 02:13:50;;;;;;;;;;;16.70;41.50;;;;;;8333470;28;19917;-44
2022/12/04 02:18:02;;;;;;;;;;;16.70;41.50;;;;;;8333120;28;19940;-45
2022/12/04 02:22:07;;;;;;;;;;;16.70;41.50;;;;;;8332360;28;19963;-43
2022/12/04 02:26:07;;;;;;;;;;;16.70;41.50;;;;;;8332931;28;19917;-43
2022/12/04 02:30:10;;;;;;;;;;;16.70;41.50;;;;;;8332699;28;19928;-43
2022/12/04 02:34:30;;;;;;;;;;;16.70;41.40;;;;;;8332044;28;19963;-43
2022/12/04 02:38:34;;;;;;;;;;;16.70;41.40;;;;;;8331794;28;20288;-43
2022/12/04 02:42:46;;;;;;;;;;;16.70;41.70;;;;;;8332267;28;19960;-43
2022/12/04 02:46:49;;;;;;;;;;;16.70;41.50;;;;;;8331761;28;19921;-43
2022/12/04 02:50:52;;;;;;;;;;;16.70;41.50;;;;;;8332049;28;19920;-43
2022/12/04 02:54:56;;;;;;;;;;;16.70;41.50;;;;;;8331708;28;20366;-43
2022/12/04 02:58:56;;;;;;;;;;;16.60;41.40;;;;;;8331817;28;19923;-43
2022/12/04 03:02:57;;;;;;;;;;;16.70;41.50;;;;;;8330204;28;19917;-43
2022/12/04 03:07:05;;;;;;;;;;;16.70;41.40;;;;;;8330238;28;20019;-43
2022/12/04 03:11:06;;;;;;;;;;;16.70;41.40;;;;;;8331345;28;19925;-43
2022/12/04 03:15:09;;;;;;;;;;;16.70;41.50;;;;;;8331616;28;20408;-43
2022/12/04 03:19:13;;;;;;;;;;;16.70;41.50;;;;;;8330814;28;19923;-43
2022/12/04 03:23:16;;;;;;;;;;;16.70;41.50;;;;;;8331296;28;19917;-44
2022/12/04 03:27:29;;;;;;;;;;;16.60;41.40;;;;;;8330744;28;19932;-43
2022/12/04 03:31:44;;;;;;;;;;;16.60;41.40;;;;;;8330544;28;19917;-44
2022/12/04 03:35:50;;;;;;;;;;;16.60;41.30;;;;;;8330913;28;20540;-43
2022/12/04 03:40:00;;;;;;;;;;;16.60;41.40;;;;;;8330157;28;19917;-44
2022/12/04 03:44:07;;;;;;;;;;;16.70;41.40;;;;;;8330633;28;20439;-45
2022/12/04 03:48:40;;;;;;;;;;;16.60;41.40;;;;;;8330236;28;19928;-43
2022/12/04 03:52:47;;;;;;;;;;;16.60;41.50;;;;;;8296859;28;20476;-44
2022/12/04 03:56:53;;;;;;;;;;;16.60;41.40;;;;;;8330175;28;20389;-44
2022/12/04 04:00:54;;;;;;;;;;;16.60;41.30;;;;;;8330052;28;19967;-44
2022/12/04 04:04:57;;;;;;;;;;;16.70;41.40;;;;;;8330055;28;19917;-43
2022/12/04 04:09:00;;;;;;;;;;;16.60;41.30;;;;;;8330092;28;19925;-43
2022/12/04 04:26:04;;;;;;;;;;;16.70;41.50;;;;;;8325688;28;20444;-44
2022/12/04 04:30:05;;;;;;;;;;;16.70;41.60;;;;;;8336365;28;20358;-43
2022/12/04 04:34:17;;;;;;;;;;;16.80;41.60;;;;;;8336345;28;19970;-43
2022/12/04 04:38:17;;;;;;;;;;;16.80;41.50;;;;;;8336437;28;19917;-43
2022/12/04 04:42:24;;;;;;;;;;;16.80;41.60;;;;;;8336039;28;19917;-45
2022/12/04 04:46:29;;;;;;;;;;;16.80;41.50;;;;;;8335428;28;20266;-43
2022/12/04 04:50:31;;;;;;;;;;;16.90;41.50;;;;;;8335866;28;19922;-43
2022/12/04 04:54:32;;;;;;;;;;;16.90;41.60;;;;;;8335742;28;19917;-43
2022/12/04 04:58:33;;;;;;;;;;;16.90;41.60;;;;;;8335058;28;19940;-43
2022/12/04 05:02:33;;;;;;;;;;;16.90;41.50;;;;;;8335464;28;20374;-42
2022/12/04 05:06:34;;;;;;;;;;;16.90;41.40;;;;;;8315477;28;20310;-42
2022/12/04 05:10:34;;;;;;;;;;;16.90;41.40;;;;;;8334918;28;19979;-42
2022/12/04 05:14:35;;;;;;;;;;;16.90;41.40;;;;;;8335137;28;19921;-42
2022/12/04 05:18:35;;;;;;;;;;;16.90;41.30;;;;;;8335021;28;19918;-42
2022/12/04 05:22:36;;;;;;;;;;;16.90;41.20;;;;;;8334300;28;19956;-42
2022/12/04 05:26:37;;;;;;;;;;;16.90;41.20;;;;;;8334990;28;19924;-42
2022/12/04 05:30:37;;;;;;;;;;;16.80;41.10;;;;;;8333513;28;19929;-42
2022/12/04 05:34:38;;;;;;;;;;;16.80;41.20;;;;;;8334499;28;20004;-42
2022/12/04 05:38:38;;;;;;;;;;;16.80;41.20;;;;;;8334560;28;19914;-42
2022/12/04 05:42:38;;;;;;;;;;;16.80;41.20;;;;;;8333695;28;19949;-41
2022/12/04 05:46:39;;;;;;;;;;;16.80;41.30;;;;;;8334173;28;19935;-42
2022/12/04 05:50:39;;;;;;;;;;;16.80;41.30;;;;;;8334076;28;19933;-42
2022/12/04 05:54:40;;;;;;;;;;;16.80;41.30;;;;;;8333270;28;19913;-42
2022/12/04 05:58:40;;;;;;;;;;;16.80;41.20;;;;;;8334004;28;19917;-44
2022/12/04 06:02:41;;;;;;;;;;;16.70;41.30;;;;;;8333533;28;19920;-44
2022/12/04 06:06:41;;;;;;;;;;;16.70;41.20;;;;;;8333036;28;19940;-44
2022/12/04 06:10:41;;;;;;;;;;;16.70;41.20;;;;;;8333039;28;19925;-45
2022/12/04 06:14:42;;;;;;;;;;;16.70;41.30;;;;;;8333037;28;20393;-42
2022/12/04 06:18:43;;;;;;;;;;;16.70;41.20;;;;;;8332673;28;19948;-41
2022/12/04 06:22:43;;;;;;;;;;;16.70;41.40;;;;;;8332943;28;20286;-43
2022/12/04 06:26:44;;;;;;;;;;;16.70;41.30;;;;;;8333119;28;19979;-44
2022/12/04 06:30:44;;;;;;;;;;;16.70;41.40;;;;;;8332103;28;19929;-43
2022/12/04 06:34:45;;;;;;;;;;;16.70;41.20;;;;;;8333154;28;20327;-44
2022/12/04 06:38:45;;;;;;;;;;;16.70;41.40;;;;;;8331907;28;19917;-44
2022/12/04 06:42:46;;;;;;;;;;;16.70;41.30;;;;;;8330803;28;19921;-44
2022/12/04 06:46:47;;;;;;;;;;;16.70;41.40;;;;;;8332513;28;20012;-43
2022/12/04 06:50:48;;;;;;;;;;;16.80;41.30;;;;;;8331949;28;20386;-45
2022/12/04 06:54:48;;;;;;;;;;;16.80;41.30;;;;;;8331491;28;19924;-43
2022/12/04 06:58:49;;;;;;;;;;;16.80;41.20;;;;;;8331607;28;19918;-44
2022/12/04 07:02:50;;;;;;;;;;;16.80;41.30;;;;;;8331427;28;19917;-44
2022/12/04 07:06:50;;;;;;;;;;;16.80;41.20;;;;;;8331354;28;19940;-44
2022/12/04 07:10:51;;;;;;;;;;;16.80;41.20;;;;;;8331386;28;19940;-44
2022/12/04 07:14:51;;;;;;;;;;;16.80;41.20;;;;;;8331170;28;20028;-44
2022/12/04 07:18:52;;;;;;;;;;;16.80;41.30;;;;;;8330727;28;19940;-44
2022/12/04 07:22:53;;;;;;;;;;;16.80;41.30;;;;;;8331259;28;19924;-43
2022/12/04 07:26:53;;;;;;;;;;;16.80;41.10;;;;;;8331083;28;19913;-45
2022/12/04 07:30:54;;;;;;;;;;;16.80;41.20;;;;;;8330451;28;20301;-43
2022/12/04 07:34:54;;;;;;;;;;;16.80;41.20;;;;;;8330623;28;19925;-45
2022/12/04 07:38:55;;;;;;;;;;;16.80;41.20;;;;;;8330643;28;19979;-44
2022/12/04 07:42:55;;;;;;;;;;;16.80;41.20;;;;;;8330084;28;20441;-44
2022/12/04 07:46:55;;;;;;;;;;;16.80;41.20;;;;;;8330451;28;19917;-45
2022/12/04 07:51:03;;;;;;;;;;;16.70;41.10;;;;;;8330323;28;19944;-44
2022/12/04 07:55:04;;;;;;;;;;;16.70;41.30;;;;;;8329558;28;19920;-44
2022/12/04 07:59:04;;;;;;;;;;;16.70;41.20;;;;;;8330125;28;19995;-44
2022/12/04 08:03:05;;;;;;;;;;;16.70;41.30;;;;;;8329995;28;20325;-43
2022/12/04 08:07:05;;;;;;;;;;;16.70;41.20;;;;;;8328935;28;20028;-45
2022/12/04 08:11:07;;;;;;;;;;;16.70;41.20;;;;;;8324887;28;20473;-44
2022/12/04 08:15:08;;;;;;;;;;;16.70;41.20;;;;;;8329947;28;20488;-45
2022/12/04 08:19:08;;;;;;;;;;;16.70;41.20;;;;;;8329436;28;19917;-45
2022/12/04 08:23:09;;;;;;;;;;;16.70;41.20;;;;;;8329707;28;20332;-42
2022/12/04 08:27:10;;;;;;;;;;;16.70;41.30;;;;;;8329806;28;19913;-45
2022/12/04 08:31:14;;;;;;;;;;;16.70;41.40;;;;;;8329235;28;19917;-45
2022/12/04 08:35:15;;;;;;;;;;;16.70;41.30;;;;;;8329543;28;19923;-44
2022/12/04 08:39:15;;;;;;;;;;;16.70;41.30;;;;;;8329618;28;20302;-44
2022/12/04 08:43:16;;;;;;;;;;;16.70;41.30;;;;;;8329020;28;19917;-43
2022/12/04 08:47:16;;;;;;;;;;;16.70;41.20;;;;;;8329524;28;20032;-43
2022/12/04 08:51:18;;;;;;;;;;;16.70;41.20;;;;;;8329266;28;20412;-44
2022/12/04 08:55:18;;;;;;;;;;;16.80;41.20;;;;;;8328944;28;19924;-43
2022/12/04 08:59:19;;;;;;;;;;;16.80;41.20;;;;;;8329537;28;19924;-44
2022/12/04 09:03:20;;;;;;;;;;;16.80;41.20;;;;;;8329259;28;19979;-43
2022/12/04 09:07:20;;;;;;;;;;;16.80;41.20;;;;;;8334536;28;19927;-44
2022/12/04 09:11:22;;;;;;;;;;;16.80;41.20;;;;;;8335181;28;19932;-43
2022/12/04 09:15:22;;;;;;;;;;;16.80;41.10;;;;;;8335170;28;19917;-43
2022/12/04 09:19:22;;;;;;;;;;;16.80;41.20;;;;;;8334394;28;19917;-43
2022/12/04 09:23:24;;;;;;;;;;;16.80;41.20;;;;;;8334718;28;19921;-42
2022/12/04 09:27:24;;;;;;;;;;;16.80;41.30;;;;;;8334746;28;19921;-43
2022/12/04 09:31:25;;;;;;;;;;;16.80;41.20;;;;;;8333872;28;19962;-43
2022/12/04 09:35:25;;;;;;;;;;;16.80;41.30;;;;;;8334308;28;19925;-43
2022/12/04 09:39:26;;;;;;;;;;;16.80;41.20;;;;;;8334262;28;20294;-44
2022/12/04 09:43:38;;;;;;;;;;;16.80;41.10;;;;;;8333658;28;20620;-43
2022/12/04 09:47:42;;;;;;;;;;;16.80;41.20;;;;;;8334218;28;19921;-43
2022/12/04 09:51:43;;;;;;;;;;;16.80;41.20;;;;;;8333482;28;20374;-43
2022/12/04 09:55:53;;;;;;;;;;;16.90;41.10;;;;;;8333767;28;19917;-43
2022/12/04 09:59:53;;;;;;;;;;;16.90;41.10;;;;;;8333622;28;19917;-44
2022/12/04 10:03:54;;;;;;;;;;;16.90;41.70;;;;;;8333023;28;19921;-44
2022/12/04 10:08:03;;;;;;;;;;;16.90;41.20;;;;;;8333679;28;19925;-45
2022/12/04 10:12:11;;;;;;;;;;;16.80;41.10;;;;;;8333182;28;19917;-44
2022/12/04 10:16:30;;;;;;;;;;;16.80;41.00;;;;;;8331265;28;20344;-45
2022/12/04 10:20:39;;;;;;;;;;;16.80;41.10;;;;;;8332851;28;19967;-44
2022/12/04 10:24:45;;;;;;;;;;;16.80;41.20;;;;;;8332391;28;19917;-44
2022/12/04 10:28:53;;;;;;;;;;;16.90;41.30;;;;;;8332697;28;20385;-44
2022/12/04 10:32:59;;;;;;;;;;;16.80;41.30;;;;;;8332642;28;19965;-44
2022/12/04 10:37:08;;;;;;;;;;;16.80;41.70;;;;;;8331797;28;19921;-45
2022/12/04 10:41:13;;;;;;;;;;;16.80;41.30;;;;;;8332248;28;19921;-45
2022/12/04 10:45:13;;;;;;;;;;;16.80;41.30;;;;;;8332037;28;19940;-46
2022/12/04 10:49:18;;;;;;;;;;;16.70;41.20;;;;;;8331659;28;20028;-45
2022/12/04 10:53:22;;;;;;;;;;;16.70;41.30;;;;;;8332609;28;19913;-45
2022/12/04 10:57:33;;;;;;;;;;;16.70;41.30;;;;;;8331812;28;20357;-45
2022/12/04 11:01:34;;;;;;;;;;;16.80;41.40;;;;;;8331241;28;19924;-45
2022/12/04 11:05:37;;;;;;;;;;;16.80;41.40;;;;;;8331395;28;19963;-45
2022/12/04 11:09:37;;;;;;;;;;;16.80;41.40;;;;;;8329147;28;20019;-45
2022/12/04 11:13:38;;;;;;;;;;;16.80;41.40;;;;;;8331613;28;19967;-44
2022/12/04 11:17:39;;;;;;;;;;;16.80;41.40;;;;;;8331206;28;20378;-44
2022/12/04 11:21:39;;;;;;;;;;;16.80;41.40;;;;;;8330489;28;19924;-45
2022/12/04 11:25:44;;;;;;;;;;;16.80;41.40;;;;;;8330801;28;19963;-45
2022/12/04 11:29:45;;;;;;;;;;;16.80;41.50;;;;;;8330465;28;19971;-45
2022/12/04 11:33:47;;;;;;;;;;;16.80;41.30;;;;;;8330496;28;20267;-45
2022/12/04 11:37:57;;;;;;;;;;;16.80;41.30;;;;;;8330849;28;20286;-43
2022/12/04 11:42:16;;;;;;;;;;;16.80;41.40;;;;;;8330522;28;19917;-44
2022/12/04 11:46:21;;;;;;;;;;;16.90;41.40;;;;;;8330152;28;19928;-44
2022/12/04 11:50:31;;;;;;;;;;;16.90;41.40;;;;;;8330203;28;19956;-45
2022/12/04 11:54:57;;;;;;;;;;;16.90;41.40;;;;;;8330240;28;19920;-44
2022/12/04 11:59:08;;;;;;;;;;;16.90;41.40;;;;;;8314424;28;19966;-43
2022/12/04 12:03:14;;;;;;;;;;;16.90;41.50;;;;;;8329981;28;20007;-46
2022/12/04 12:07:41;;;;;;;;;;;16.90;41.40;;;;;;8329274;28;20401;-45
2022/12/04 12:11:48;;;;;;;;;;;16.90;41.40;;;;;;8327010;28;19929;-45
2022/12/04 12:16:07;;;;;;;;;;;16.90;41.50;;;;;;8329647;28;19921;-45
2022/12/04 12:20:11;;;;;;;;;;;16.90;41.40;;;;;;8329757;28;19917;-46
2022/12/04 12:24:44;;;;;;;;;;;16.90;41.40;;;;;;8329926;28;19919;-45
2022/12/04 12:28:44;;;;;;;;;;;16.90;41.30;;;;;;8296162;28;19987;-44
2022/12/04 12:32:48;;;;;;;;;;;16.90;41.40;;;;;;8329594;28;19944;-45
2022/12/04 12:36:49;;;;;;;;;;;16.90;41.30;;;;;;8329039;28;20271;-45
2022/12/04 12:40:54;;;;;;;;;;;16.90;41.40;;;;;;8333487;28;20298;-45
2022/12/04 12:45:01;;;;;;;;;;;16.90;41.40;;;;;;8335792;28;19925;-44
2022/12/04 12:49:08;;;;;;;;;;;16.90;41.40;;;;;;8335548;28;20008;-45
2022/12/04 12:53:15;;;;;;;;;;;16.90;41.40;;;;;;8335437;28;19918;-45
2022/12/04 12:57:23;;;;;;;;;;;16.80;42.00;;;;;;8335472;28;20432;-44
2022/12/04 13:01:29;;;;;;;;;;;16.80;41.40;;;;;;8334904;28;19924;-44
2022/12/04 13:05:34;;;;;;;;;;;16.90;41.50;;;;;;8335309;28;19917;-43
2022/12/04 13:09:36;;;;;;;;;;;16.80;41.50;;;;;;8335127;28;19932;-46
2022/12/04 13:13:42;;;;;;;;;;;16.80;41.50;;;;;;8334695;28;19969;-44
2022/12/04 13:17:42;;;;;;;;;;;16.80;41.50;;;;;;8334960;28;20389;-44
2022/12/04 13:21:43;;;;;;;;;;;16.80;41.50;;;;;;8334398;28;19917;-43
2022/12/04 13:26:02;;;;;;;;;;;16.80;41.50;;;;;;8334478;28;19924;-44
2022/12/04 13:30:09;;;;;;;;;;;16.80;41.50;;;;;;8334746;28;20439;-44
2022/12/04 13:34:24;;;;;;;;;;;16.90;41.50;;;;;;8334141;28;19924;-44
2022/12/04 13:38:34;;;;;;;;;;;16.90;41.50;;;;;;8334369;28;19928;-43
2022/12/04 13:42:34;;;;;;;;;;;16.90;41.50;;;;;;8334110;28;19955;-44
2022/12/04 13:46:36;;;;;;;;;;;16.90;41.50;;;;;;8333630;28;19921;-44
2022/12/04 13:50:37;;;;;;;;;;;16.90;41.50;;;;;;8333623;28;20039;-43
2022/12/04 13:54:38;;;;;;;;;;;16.90;41.60;;;;;;8333602;28;20257;-44
2022/12/04 13:58:38;;;;;;;;;;;16.90;41.50;;;;;;8333608;28;19924;-44
2022/12/04 14:02:43;;;;;;;;;;;16.90;41.50;;;;;;8333432;28;19917;-44
2022/12/04 14:06:45;;;;;;;;;;;16.90;41.50;;;;;;8332817;28;19921;-44
2022/12/04 14:10:55;;;;;;;;;;;17.00;41.50;;;;;;8333553;28;19933;-44
2022/12/04 14:14:58;;;;;;;;;;;16.90;41.60;;;;;;8333298;28;19914;-44
2022/12/04 14:18:59;;;;;;;;;;;17.00;41.50;;;;;;8332467;28;19924;-45
2022/12/04 14:23:29;;;;;;;;;;;17.00;41.50;;;;;;8332963;28;20012;-44
2022/12/04 14:27:41;;;;;;;;;;;17.00;41.50;;;;;;8319310;28;19986;-45
2022/12/04 14:31:42;;;;;;;;;;;17.00;41.40;;;;;;8332164;28;19917;-44
2022/12/04 14:35:44;;;;;;;;;;;17.00;41.40;;;;;;8332354;28;20282;-43
2022/12/04 14:39:45;;;;;;;;;;;17.00;41.40;;;;;;8332162;28;19921;-44
2022/12/04 14:43:48;;;;;;;;;;;17.00;41.30;;;;;;8332227;28;19917;-44
2022/12/04 14:48:08;;;;;;;;;;;17.00;41.30;;;;;;8331899;28;19929;-45
2022/12/04 14:52:14;;;;;;;;;;;16.90;41.40;;;;;;8331355;28;20381;-44
2022/12/04 14:56:17;;;;;;;;;;;17.00;41.50;;;;;;8330828;28;19917;-45
2022/12/04 15:00:21;;;;;;;;;;;16.90;41.50;;;;;;8331801;28;19917;-44
2022/12/04 15:04:21;;;;;;;;;;;16.90;41.60;;;;;;8362342;28;19920;-44
2022/12/04 15:08:21;;;;;;;;;;;16.90;41.70;;;;;;8340562;28;19968;-44
2022/12/04 15:12:35;;;;;;;;;;;16.90;41.60;;;;;;8331214;28;19917;-44
2022/12/04 15:16:35;;;;;;;;;;;16.90;41.60;;;;;;8330720;28;19971;-44
2022/12/04 15:20:48;;;;;;;;;;;16.90;41.60;;;;;;8331412;28;19913;-43
2022/12/04 15:24:49;;;;;;;;;;;16.90;41.60;;;;;;8330736;28;20486;-43
2022/12/04 15:29:00;;;;;;;;;;;16.80;41.60;;;;;;8330940;28;20341;-43
2022/12/04 15:33:00;;;;;;;;;;;16.90;41.60;;;;;;8330630;28;19925;-43
2022/12/04 15:37:27;;;;;;;;;;;16.80;41.60;;;;;;8330146;28;20384;-44
2022/12/04 15:41:30;;;;;;;;;;;16.80;41.60;;;;;;8327248;28;19916;-43
2022/12/04 15:45:33;;;;;;;;;;;16.80;41.60;;;;;;8330540;28;19913;-44
2022/12/04 15:49:33;;;;;;;;;;;16.80;41.60;;;;;;8329649;28;19951;-43
2022/12/04 15:53:36;;;;;;;;;;;16.80;41.70;;;;;;8330211;28;19925;-43
2022/12/04 15:57:40;;;;;;;;;;;16.80;41.60;;;;;;8329920;28;19983;-43
2022/12/04 16:01:40;;;;;;;;;;;16.80;41.70;;;;;;8330312;28;19917;-44
2022/12/04 16:05:41;;;;;;;;;;;16.80;41.70;;;;;;8330084;28;19966;-44
2022/12/04 16:09:49;;;;;;;;;;;16.80;41.70;;;;;;8329307;28;19987;-43
2022/12/04 16:14:10;;;;;;;;;;;16.80;41.60;;;;;;8332151;28;20004;-44
2022/12/04 16:18:12;;;;;;;;;;;16.80;41.60;;;;;;8326053;28;19943;-44
2022/12/04 16:22:14;;;;;;;;;;;16.80;41.60;;;;;;8336091;28;20015;-44
2022/12/04 16:26:16;;;;;;;;;;;16.80;41.60;;;;;;8336406;28;19913;-44
2022/12/04 16:30:16;;;;;;;;;;;16.80;41.70;;;;;;8336447;28;20378;-44
2022/12/04 16:34:17;;;;;;;;;;;16.80;41.60;;;;;;8335767;28;19975;-45
2022/12/04 16:38:18;;;;;;;;;;;16.80;41.70;;;;;;8335948;28;20285;-43
2022/12/04 16:42:22;;;;;;;;;;;16.80;41.70;;;;;;8336364;28;19913;-44
2022/12/04 16:46:23;;;;;;;;;;;16.80;41.70;;;;;;8335507;28;19924;-44
2022/12/04 16:50:25;;;;;;;;;;;16.80;41.70;;;;;;8340171;28;19955;-43
2022/12/04 16:54:25;;;;;;;;;;;16.90;41.80;;;;;;8342270;28;20212;-45
2022/12/04 16:58:26;;;;;;;;;;;16.90;41.70;;;;;;8335054;28;20065;-44
2022/12/04 17:02:26;;;;;;;;;;;16.90;41.80;;;;;;8335088;28;19917;-43
2022/12/04 17:06:27;;;;;;;;;;;16.90;41.70;;;;;;8335114;28;19921;-43
2022/12/04 17:10:28;;;;;;;;;;;16.90;41.80;;;;;;8304482;28;20449;-44
2022/12/04 17:14:29;;;;;;;;;;;16.90;41.70;;;;;;8328152;28;19921;-44
2022/12/04 17:18:29;;;;;;;;;;;16.90;41.60;;;;;;8334853;28;19913;-45
2022/12/04 17:22:31;;;;;;;;;;;16.90;41.70;;;;;;8333027;28;19917;-45
2022/12/04 17:26:31;;;;;;;;;;;16.90;41.70;;;;;;8334342;28;19992;-43
2022/12/04 17:30:32;;;;;;;;;;;16.90;41.70;;;;;;8334569;28;19929;-45
2022/12/04 17:34:32;;;;;;;;;;;16.90;41.60;;;;;;8333758;28;19917;-45
2022/12/04 17:38:32;;;;;;;;;;;16.90;41.70;;;;;;8334258;28;19924;-45
2022/12/04 17:42:33;;;;;;;;;;;16.90;41.70;;;;;;8334104;28;19913;-44
2022/12/04 17:46:33;;;;;;;;;;;16.90;41.70;;;;;;8333734;28;19921;-44
2022/12/04 17:50:34;;;;;;;;;;;16.90;41.80;;;;;;8333726;28;19924;-43
2022/12/04 17:54:34;;;;;;;;;;;16.90;41.80;;;;;;8333650;28;20012;-44
2022/12/04 17:58:35;;;;;;;;;;;16.90;41.80;;;;;;8333313;28;19979;-44
2022/12/04 18:02:36;;;;;;;;;;;16.90;41.80;;;;;;8333636;28;20270;-44
2022/12/04 18:06:38;;;;;;;;;;;16.90;41.70;;;;;;8333476;28;19918;-43
2022/12/04 18:10:39;;;;;;;;;;;16.90;41.80;;;;;;8332852;28;19925;-44
2022/12/04 18:14:39;;;;;;;;;;;16.90;41.70;;;;;;8332954;28;19917;-45
2022/12/04 18:18:40;;;;;;;;;;;16.90;41.70;;;;;;8332702;28;19920;-44
2022/12/04 18:22:40;;;;;;;;;;;16.90;41.70;;;;;;8332937;28;19913;-45
2022/12/04 18:26:44;;;;;;;;;;;16.90;41.70;;;;;;8332927;28;20343;-46
2022/12/04 18:30:45;;;;;;;;;;;17.00;41.80;;;;;;8331992;28;20382;-44
2022/12/04 18:34:45;;;;;;;;;;;16.90;41.70;;;;;;8332466;28;19917;-44
2022/12/04 18:38:51;;;;;;;;;;;16.90;41.70;;;;;;8331417;28;19913;-44
2022/12/04 18:42:51;;;;;;;;;;;16.90;41.80;;;;;;8333752;28;20491;-44
2022/12/04 18:46:52;;;;;;;;;;;16.90;41.80;;;;;;8332646;28;19913;-45
2022/12/04 18:50:52;;;;;;;;;;;16.90;41.80;;;;;;8331853;28;19925;-44
2022/12/04 18:54:53;;;;;;;;;;;16.90;41.80;;;;;;8331386;28;19917;-43
2022/12/04 18:59:01;;;;;;;;;;;16.90;41.70;;;;;;8331653;28;20401;-45
2022/12/04 19:03:03;;;;;;;;;;;16.90;41.70;;;;;;8332030;28;20385;-44
2022/12/04 19:07:04;;;;;;;;;;;16.90;41.70;;;;;;8331387;28;20012;-44
2022/12/04 19:11:10;;;;;;;;;;;16.90;41.70;;;;;;8331662;28;19933;-44
2022/12/04 19:15:10;;;;;;;;;;;16.90;41.70;;;;;;8331393;28;19917;-44
2022/12/04 19:19:11;;;;;;;;;;;16.90;41.70;;;;;;8330950;28;19924;-43
2022/12/04 19:23:12;;;;;;;;;;;16.90;41.70;;;;;;8331646;28;19924;-45
2022/12/04 19:27:13;;;;;;;;;;;16.90;41.70;;;;;;8331556;28;20354;-44
2022/12/04 19:31:18;;;;;;;;;;;16.90;41.70;;;;;;8330636;28;20382;-46
2022/12/04 19:35:19;;;;;;;;;;;16.90;41.70;;;;;;8330956;28;19917;-43
2022/12/04 19:39:19;;;;;;;;;;;16.90;41.70;;;;;;8330917;28;19917;-44
2022/12/04 19:43:20;;;;;;;;;;;16.90;41.70;;;;;;8330130;28;19917;-44
2022/12/04 19:47:20;;;;;;;;;;;16.90;41.70;;;;;;8330929;28;19980;-44
2022/12/04 19:51:21;;;;;;;;;;;16.90;41.80;;;;;;8330244;28;20020;-44
2022/12/04 19:55:21;;;;;;;;;;;16.90;41.60;;;;;;8329902;28;19921;-44
2022/12/04 19:59:22;;;;;;;;;;;16.90;41.70;;;;;;8330390;28;19921;-44
2022/12/04 20:03:22;;;;;;;;;;;16.90;41.70;;;;;;8330327;28;19917;-44
2022/12/04 20:07:23;;;;;;;;;;;16.90;41.70;;;;;;8328737;28;19928;-45
2022/12/04 20:11:27;;;;;;;;;;;16.90;41.70;;;;;;8329467;28;21505;-43
2022/12/04 20:15:27;;;;;;;;;;;16.90;41.70;;;;;;8329960;28;19921;-45
2022/12/04 20:19:28;;;;;;;;;;;16.90;41.70;;;;;;8329608;28;20393;-45
2022/12/04 20:23:28;;;;;;;;;;;16.90;41.80;;;;;;8330014;28;20000;-44
2022/12/04 20:27:28;;;;;;;;;;;16.90;41.70;;;;;;8329888;28;20336;-45
2022/12/04 20:31:31;;;;;;;;;;;16.90;41.70;;;;;;8329291;28;19921;-45
2022/12/04 20:35:33;;;;;;;;;;;16.90;41.70;;;;;;8329979;28;19918;-44
2022/12/04 20:39:34;;;;;;;;;;;16.90;41.70;;;;;;8328284;28;20267;-44
2022/12/04 20:43:34;;;;;;;;;;;16.90;41.70;;;;;;8329241;28;19917;-44
2022/12/04 20:47:35;;;;;;;;;;;16.90;41.70;;;;;;8329890;28;19921;-43
2022/12/04 20:51:37;;;;;;;;;;;16.90;41.70;;;;;;8329577;28;19965;-43
2022/12/04 20:55:37;;;;;;;;;;;16.90;41.70;;;;;;8329452;28;20340;-43
2022/12/04 20:59:38;;;;;;;;;;;16.90;41.60;;;;;;8329613;28;19917;-45
2022/12/04 21:03:38;;;;;;;;;;;16.90;41.60;;;;;;8335340;28;19923;-44
2022/12/04 21:07:39;;;;;;;;;;;16.90;41.60;;;;;;8334089;28;20004;-43
2022/12/04 21:11:43;;;;;;;;;;;16.90;41.60;;;;;;8335145;28;19971;-44
2022/12/04 21:16:04;;;;;;;;;;;16.90;41.70;;;;;;8334715;28;19917;-45
2022/12/04 21:20:05;;;;;;;;;;;16.90;41.60;;;;;;8335197;28;19921;-44
2022/12/04 21:24:06;;;;;;;;;;;16.90;41.60;;;;;;8334838;28;20400;-45
2022/12/04 21:28:07;;;;;;;;;;;16.90;41.60;;;;;;8334250;28;20381;-44
2022/12/04 21:32:07;;;;;;;;;;;16.90;41.60;;;;;;8334834;28;19945;-44
2022/12/04 21:36:08;;;;;;;;;;;16.90;41.60;;;;;;8334490;28;19924;-44
2022/12/04 21:40:09;;;;;;;;;;;16.90;41.60;;;;;;8333856;28;20375;-45
2022/12/04 21:44:11;;;;;;;;;;;16.90;41.50;;;;;;8334499;28;19927;-44
2022/12/04 21:48:12;;;;;;;;;;;16.90;41.60;;;;;;8334213;28;19921;-44
2022/12/04 21:52:13;;;;;;;;;;;16.90;41.50;;;;;;8333659;28;19913;-44
2022/12/04 21:56:14;;;;;;;;;;;16.90;41.60;;;;;;8333782;28;19917;-44
2022/12/04 22:00:15;;;;;;;;;;;16.90;41.60;;;;;;8333774;28;19979;-45
2022/12/04 22:04:15;;;;;;;;;;;16.90;41.60;;;;;;8333200;28;20366;-44
2022/12/04 22:08:16;;;;;;;;;;;16.90;41.70;;;;;;8334237;28;19953;-45
2022/12/04 22:12:16;;;;;;;;;;;16.90;41.70;;;;;;8333019;28;19917;-45
2022/12/04 22:16:17;;;;;;;;;;;16.90;41.70;;;;;;8332710;28;19925;-44
2022/12/04 22:20:18;;;;;;;;;;;16.90;41.70;;;;;;8333049;28;19921;-45
2022/12/04 22:24:18;;;;;;;;;;;16.90;41.70;;;;;;8333180;28;20003;-45
2022/12/04 22:28:19;;;;;;;;;;;16.80;41.60;;;;;;8332513;28;19928;-45
2022/12/04 22:32:19;;;;;;;;;;;16.80;41.70;;;;;;8332667;28;20345;-45
2022/12/04 22:36:21;;;;;;;;;;;16.80;41.70;;;;;;8332665;28;20310;-44
2022/12/04 22:40:21;;;;;;;;;;;16.90;41.60;;;;;;8331968;28;19928;-44
2022/12/04 22:44:22;;;;;;;;;;;16.90;41.70;;;;;;8332570;28;19964;-45
2022/12/04 22:48:23;;;;;;;;;;;16.80;41.60;;;;;;8332150;28;20029;-44
2022/12/04 22:52:23;;;;;;;;;;;16.80;41.60;;;;;;8331535;28;19996;-44
2022/12/04 22:56:25;;;;;;;;;;;16.90;41.60;;;;;;8332077;28;20378;-45
2022/12/04 23:00:26;;;;;;;;;;;16.80;41.60;;;;;;8331042;28;20385;-45
2022/12/04 23:04:26;;;;;;;;;;;16.90;41.60;;;;;;8331326;28;20020;-45
2022/12/04 23:08:27;;;;;;;;;;;16.90;41.60;;;;;;8330408;28;19936;-44
2022/12/04 23:12:28;;;;;;;;;;;16.80;41.60;;;;;;8331407;28;19921;-44
2022/12/04 23:16:30;;;;;;;;;;;16.80;41.60;;;;;;8329541;28;19971;-44
2022/12/04 23:20:31;;;;;;;;;;;16.80;41.60;;;;;;8331672;28;19917;-45
2022/12/04 23:24:32;;;;;;;;;;;16.80;41.70;;;;;;8330643;28;19924;-45
2022/12/04 23:28:32;;;;;;;;;;;16.80;41.60;;;;;;8330839;28;19921;-45
2022/12/04 23:32:33;;;;;;;;;;;16.80;41.70;;;;;;8330861;28;19956;-44
2022/12/04 23:36:33;;;;;;;;;;;16.80;41.60;;;;;;8330804;28;19971;-44
2022/12/04 23:40:34;;;;;;;;;;;16.80;41.70;;;;;;8329944;28;19917;-45
2022/12/04 23:44:34;;;;;;;;;;;16.80;41.60;;;;;;8330851;28;20007;-44